createdAt,value
2023-04-20T00:00:22.057Z,23.22
2023-04-20T00:01:21.983Z,23.22
2023-04-20T00:02:22.160Z,23.22
2023-04-20T00:03:22.238Z,23.22
2023-04-20T00:04:22.069Z,23.22
2023-04-20T00:05:22.141Z,23.22
2023-04-20T00:06:22.115Z,23.22
2023-04-20T00:07:22.116Z,23.22
2023-04-20T00:08:22.148Z,23.21
2023-04-20T00:09:22.185Z,23.21
2023-04-20T00:10:22.248Z,23.22
2023-04-20T00:11:22.314Z,23.22
2023-04-20T00:12:22.391Z,23.21
2023-04-20T00:13:22.467Z,23.21
2023-04-20T00:14:22.520Z,23.22
2023-04-20T00:15:22.581Z,23.20
2023-04-20T00:16:22.764Z,23.20
2023-04-20T00:17:22.813Z,23.20
2023-04-20T00:18:22.795Z,23.20
2023-04-20T00:19:22.844Z,23.21
2023-04-20T00:20:22.918Z,23.21
2023-04-20T00:21:22.975Z,23.20
2023-04-20T00:22:23.049Z,23.21
2023-04-20T00:23:23.067Z,23.20
2023-04-20T00:24:23.081Z,23.20
2023-04-20T00:25:23.103Z,23.20
2023-04-20T00:26:23.131Z,23.20
2023-04-20T00:27:23.162Z,23.21
2023-04-20T00:28:23.183Z,23.20
2023-04-20T00:29:23.194Z,23.21
2023-04-20T00:30:23.240Z,23.21
2023-04-20T00:31:23.328Z,23.20
2023-04-20T00:32:23.298Z,23.22
2023-04-20T00:33:23.307Z,23.20
2023-04-20T00:34:23.337Z,23.21
2023-04-20T00:35:23.390Z,23.20
2023-04-20T00:36:23.401Z,23.20
2023-04-20T00:37:23.427Z,23.20
2023-04-20T00:38:23.474Z,23.20
2023-04-20T00:39:23.478Z,23.19
2023-04-20T00:40:23.498Z,23.20
2023-04-20T00:41:23.509Z,23.20
2023-04-20T00:42:23.539Z,23.20
2023-04-20T00:43:23.568Z,23.19
2023-04-20T00:44:23.581Z,23.19
2023-04-20T00:45:23.618Z,23.20
2023-04-20T00:46:23.690Z,23.20
2023-04-20T00:47:23.671Z,23.20
2023-04-20T00:48:23.702Z,23.20
2023-04-20T00:49:23.717Z,23.20
2023-04-20T00:50:23.797Z,23.20
2023-04-20T00:51:23.869Z,23.20
2023-04-20T00:52:23.955Z,23.19
2023-04-20T00:53:24.000Z,23.19
2023-04-20T00:54:24.004Z,23.19
2023-04-20T00:55:24.030Z,23.19
2023-04-20T00:56:24.041Z,23.19
2023-04-20T00:57:24.213Z,23.20
2023-04-20T00:58:24.105Z,23.19
2023-04-20T00:59:24.117Z,23.19
2023-04-20T01:00:24.163Z,23.19
2023-04-20T01:01:24.291Z,23.19
2023-04-20T01:02:24.396Z,23.19
2023-04-20T01:03:24.273Z,23.19
2023-04-20T01:04:24.375Z,23.19
2023-04-20T01:05:24.345Z,23.19
2023-04-20T01:06:24.419Z,23.19
2023-04-20T01:07:24.486Z,23.20
2023-04-20T01:08:24.554Z,23.19
2023-04-20T01:09:24.623Z,23.19
2023-04-20T01:10:24.696Z,23.19
2023-04-20T01:11:24.769Z,23.19
2023-04-20T01:12:24.843Z,23.19
2023-04-20T01:13:24.926Z,23.18
2023-04-20T01:14:25.003Z,23.19
2023-04-20T01:15:25.071Z,23.19
2023-04-20T01:16:25.250Z,23.19
2023-04-20T01:17:25.238Z,23.19
2023-04-20T01:18:25.290Z,23.18
2023-04-20T01:19:25.373Z,23.19
2023-04-20T01:20:25.417Z,23.19
2023-04-20T01:21:25.534Z,23.19
2023-04-20T01:22:25.585Z,23.19
2023-04-20T01:23:25.649Z,23.19
2023-04-20T01:24:25.754Z,23.19
2023-04-20T01:25:25.792Z,23.19
2023-04-20T01:26:25.873Z,23.18
2023-04-20T01:27:25.861Z,23.19
2023-04-20T01:28:25.884Z,23.18
2023-04-20T01:29:25.905Z,23.18
2023-04-20T01:30:25.929Z,23.19
2023-04-20T01:31:25.997Z,23.19
2023-04-20T01:32:26.042Z,23.18
2023-04-20T01:33:26.009Z,23.18
2023-04-20T01:34:26.045Z,23.18
2023-04-20T01:35:26.057Z,23.18
2023-04-20T01:36:26.093Z,23.18
2023-04-20T01:37:26.206Z,23.18
2023-04-20T01:38:26.246Z,23.18
2023-04-20T01:39:26.372Z,23.18
2023-04-20T01:40:26.395Z,23.18
2023-04-20T01:41:26.470Z,23.18
2023-04-20T01:42:26.546Z,23.18
2023-04-20T01:43:26.625Z,23.18
2023-04-20T01:44:26.697Z,23.18
2023-04-20T01:45:26.781Z,23.18
2023-04-20T01:46:26.854Z,23.18
2023-04-20T01:47:26.957Z,23.18
2023-04-20T01:48:26.970Z,23.18
2023-04-20T01:49:27.103Z,23.18
2023-04-20T01:50:27.114Z,23.18
2023-04-20T01:51:27.205Z,23.18
2023-04-20T01:52:27.270Z,23.18
2023-04-20T01:53:27.366Z,23.18
2023-04-20T01:54:27.411Z,23.18
2023-04-20T01:55:27.484Z,23.17
2023-04-20T01:56:27.557Z,23.18
2023-04-20T01:57:27.631Z,23.17
2023-04-20T01:58:27.652Z,23.17
2023-04-20T01:59:27.683Z,23.18
2023-04-20T02:00:27.699Z,23.17
2023-04-20T02:01:27.744Z,23.17
2023-04-20T02:02:27.862Z,23.17
2023-04-20T02:03:27.986Z,23.17
2023-04-20T02:04:27.777Z,23.17
2023-04-20T02:05:27.808Z,23.17
2023-04-20T02:06:27.861Z,23.18
2023-04-20T02:07:27.845Z,23.17
2023-04-20T02:08:27.905Z,23.17
2023-04-20T02:09:27.968Z,23.17
2023-04-20T02:10:28.036Z,23.17
2023-04-20T02:11:28.103Z,23.17
2023-04-20T02:12:28.185Z,23.17
2023-04-20T02:13:28.246Z,23.17
2023-04-20T02:14:28.325Z,23.17
2023-04-20T02:15:28.397Z,23.16
2023-04-20T02:16:28.506Z,23.17
2023-04-20T02:17:28.587Z,23.17
2023-04-20T02:18:28.633Z,23.17
2023-04-20T02:19:28.692Z,23.17
2023-04-20T02:20:28.785Z,23.17
2023-04-20T02:21:28.854Z,23.16
2023-04-20T02:22:28.949Z,23.16
2023-04-20T02:23:29.022Z,23.16
2023-04-20T02:24:29.098Z,23.17
2023-04-20T02:25:29.173Z,23.16
2023-04-20T02:26:29.248Z,23.16
2023-04-20T02:27:29.331Z,23.16
2023-04-20T02:28:29.396Z,23.16
2023-04-20T02:29:29.498Z,23.16
2023-04-20T02:30:29.555Z,23.16
2023-04-20T02:31:29.629Z,23.16
2023-04-20T02:32:29.730Z,23.16
2023-04-20T02:33:29.814Z,23.17
2023-04-20T02:34:29.878Z,23.16
2023-04-20T02:35:29.956Z,23.16
2023-04-20T02:36:30.032Z,23.16
2023-04-20T02:37:30.080Z,23.16
2023-04-20T02:38:30.156Z,23.16
2023-04-20T02:39:30.247Z,23.16
2023-04-20T02:40:30.303Z,23.16
2023-04-20T02:41:30.370Z,23.16
2023-04-20T02:42:30.482Z,23.15
2023-04-20T02:43:30.433Z,23.16
2023-04-20T02:44:30.445Z,23.18
2023-04-20T02:45:30.477Z,23.21
2023-04-20T02:46:30.499Z,23.24
2023-04-20T02:47:30.555Z,23.26
2023-04-20T02:48:30.549Z,23.22
2023-04-20T02:49:30.570Z,23.18
2023-04-20T02:50:30.599Z,23.19
2023-04-20T02:51:30.609Z,23.16
2023-04-20T02:52:30.652Z,23.13
2023-04-20T02:53:30.716Z,23.09
2023-04-20T02:54:30.793Z,23.04
2023-04-20T02:55:30.812Z,23.02
2023-04-20T02:56:30.856Z,22.98
2023-04-20T02:57:30.863Z,22.93
2023-04-20T02:58:30.911Z,22.89
2023-04-20T02:59:30.904Z,22.83
2023-04-20T03:00:30.935Z,22.77
2023-04-20T03:01:30.985Z,22.74
2023-04-20T03:02:31.105Z,22.68
2023-04-20T03:03:31.144Z,22.64
2023-04-20T03:04:31.170Z,22.61
2023-04-20T03:05:31.089Z,22.60
2023-04-20T03:06:31.110Z,22.59
2023-04-20T03:07:31.140Z,22.56
2023-04-20T03:08:31.173Z,22.57
2023-04-20T03:09:31.211Z,22.59
2023-04-20T03:10:31.262Z,22.60
2023-04-20T03:11:31.341Z,22.61
2023-04-20T03:12:31.368Z,22.62
2023-04-20T03:13:31.401Z,22.59
2023-04-20T03:14:31.437Z,22.56
2023-04-20T03:15:31.460Z,22.51
2023-04-20T03:16:31.517Z,22.48
2023-04-20T03:17:31.600Z,22.46
2023-04-20T03:18:31.574Z,22.46
2023-04-20T03:19:31.589Z,22.42
2023-04-20T03:20:31.631Z,22.40
2023-04-20T03:21:31.657Z,22.37
2023-04-20T03:22:31.696Z,22.36
2023-04-20T03:23:31.730Z,22.34
2023-04-20T03:24:31.766Z,22.35
2023-04-20T03:25:31.784Z,22.33
2023-04-20T03:26:31.816Z,22.31
2023-04-20T03:27:31.837Z,22.28
2023-04-20T03:28:31.887Z,22.30
2023-04-20T03:29:31.913Z,22.27
2023-04-20T03:30:31.944Z,22.29
2023-04-20T03:31:31.992Z,22.28
2023-04-20T03:32:32.839Z,22.24
2023-04-20T03:33:32.045Z,22.24
2023-04-20T03:34:32.050Z,22.22
2023-04-20T03:35:32.113Z,22.19
2023-04-20T03:36:32.130Z,22.18
2023-04-20T03:37:32.148Z,22.18
2023-04-20T03:38:32.198Z,22.16
2023-04-20T03:39:32.212Z,22.15
2023-04-20T03:40:32.268Z,22.12
2023-04-20T03:41:32.376Z,22.14
2023-04-20T03:42:32.314Z,22.14
2023-04-20T03:43:32.350Z,22.13
2023-04-20T03:44:32.371Z,22.13
2023-04-20T03:45:32.444Z,22.11
2023-04-20T03:46:32.452Z,22.08
2023-04-20T03:47:32.506Z,22.08
2023-04-20T03:48:32.507Z,22.07
2023-04-20T03:49:32.536Z,22.05
2023-04-20T03:50:32.560Z,22.06
2023-04-20T03:51:32.631Z,22.05
2023-04-20T03:52:32.670Z,22.05
2023-04-20T03:53:32.731Z,22.03
2023-04-20T03:54:32.792Z,22.03
2023-04-20T03:55:32.862Z,22.03
2023-04-20T03:56:32.938Z,22.04
2023-04-20T03:57:33.001Z,22.04
2023-04-20T03:58:33.097Z,22.01
2023-04-20T03:59:33.135Z,21.98
2023-04-20T04:00:33.206Z,21.98
2023-04-20T04:01:33.285Z,21.95
2023-04-20T04:02:34.139Z,21.94
2023-04-20T04:03:33.576Z,21.94
2023-04-20T04:04:33.673Z,21.94
2023-04-20T04:05:33.541Z,21.93
2023-04-20T04:06:33.501Z,21.93
2023-04-20T04:07:33.522Z,21.90
2023-04-20T04:08:33.565Z,21.88
2023-04-20T04:09:33.622Z,21.87
2023-04-20T04:10:33.652Z,21.86
2023-04-20T04:11:33.700Z,21.85
2023-04-20T04:12:33.728Z,21.83
2023-04-20T04:13:34.815Z,21.83
2023-04-20T04:14:33.841Z,21.82
2023-04-20T04:15:33.885Z,21.82
2023-04-20T04:16:33.975Z,21.80
2023-04-20T04:17:33.970Z,21.83
2023-04-20T04:18:33.999Z,21.81
2023-04-20T04:19:34.076Z,21.80
2023-04-20T04:20:34.165Z,21.78
2023-04-20T04:21:34.257Z,21.80
2023-04-20T04:22:34.294Z,21.77
2023-04-20T04:23:34.355Z,21.77
2023-04-20T04:24:34.371Z,21.76
2023-04-20T04:25:34.429Z,21.77
2023-04-20T04:26:34.464Z,21.75
2023-04-20T04:27:34.507Z,21.76
2023-04-20T04:28:34.549Z,21.74
2023-04-20T04:29:34.578Z,21.74
2023-04-20T04:30:34.622Z,21.75
2023-04-20T04:31:34.703Z,21.75
2023-04-20T04:32:34.751Z,21.76
2023-04-20T04:33:34.733Z,21.76
2023-04-20T04:34:34.846Z,21.75
2023-04-20T04:35:34.937Z,21.76
2023-04-20T04:36:35.000Z,21.76
2023-04-20T04:37:35.093Z,21.75
2023-04-20T04:38:35.204Z,21.75
2023-04-20T04:39:35.287Z,21.78
2023-04-20T04:40:35.384Z,21.78
2023-04-20T04:41:35.478Z,21.77
2023-04-20T04:42:35.579Z,21.76
2023-04-20T04:43:35.685Z,21.76
2023-04-20T04:44:35.765Z,21.76
2023-04-20T04:45:35.876Z,21.74
2023-04-20T04:46:36.026Z,21.73
2023-04-20T04:47:36.113Z,21.73
2023-04-20T04:48:36.176Z,21.74
2023-04-20T04:49:36.273Z,21.73
2023-04-20T04:50:36.379Z,21.74
2023-04-20T04:51:36.472Z,21.73
2023-04-20T04:52:36.551Z,21.73
2023-04-20T04:53:36.665Z,21.74
2023-04-20T04:54:36.758Z,21.76
2023-04-20T04:55:36.864Z,21.77
2023-04-20T04:56:36.943Z,21.80
2023-04-20T04:57:37.046Z,21.82
2023-04-20T04:58:37.147Z,21.85
2023-04-20T04:59:37.227Z,21.87
2023-04-20T05:00:37.324Z,21.89
2023-04-20T05:01:37.447Z,21.91
2023-04-20T05:02:37.753Z,21.94
2023-04-20T05:03:37.678Z,21.96
2023-04-20T05:04:37.748Z,21.97
2023-04-20T05:05:37.711Z,21.99
2023-04-20T05:06:37.794Z,22.01
2023-04-20T05:07:37.863Z,22.02
2023-04-20T05:08:37.935Z,22.03
2023-04-20T05:09:37.997Z,22.05
2023-04-20T05:10:38.062Z,22.06
2023-04-20T05:11:38.125Z,22.08
2023-04-20T05:12:38.196Z,22.09
2023-04-20T05:13:38.284Z,22.11
2023-04-20T05:14:38.312Z,22.12
2023-04-20T05:15:38.347Z,22.13
2023-04-20T05:16:38.425Z,22.14
2023-04-20T05:17:38.406Z,22.14
2023-04-20T05:18:38.424Z,22.15
2023-04-20T05:19:38.456Z,22.16
2023-04-20T05:20:38.578Z,22.17
2023-04-20T05:21:38.553Z,22.18
2023-04-20T05:22:38.582Z,22.19
2023-04-20T05:23:38.626Z,22.20
2023-04-20T05:24:38.630Z,22.25
2023-04-20T05:25:38.663Z,22.27
2023-04-20T05:26:38.703Z,22.25
2023-04-20T05:27:38.739Z,22.26
2023-04-20T05:28:38.778Z,22.26
2023-04-20T05:29:38.829Z,22.24
2023-04-20T05:30:38.896Z,22.22
2023-04-20T05:31:38.947Z,22.19
2023-04-20T05:32:38.992Z,22.13
2023-04-20T05:33:38.963Z,22.11
2023-04-20T05:34:38.988Z,22.08
2023-04-20T05:35:39.026Z,22.06
2023-04-20T05:36:39.077Z,22.04
2023-04-20T05:37:39.146Z,22.03
2023-04-20T05:38:39.228Z,22.03
2023-04-20T05:39:39.298Z,22.03
2023-04-20T05:40:39.377Z,22.01
2023-04-20T05:41:39.449Z,22.00
2023-04-20T05:42:39.529Z,21.97
2023-04-20T05:43:39.610Z,21.94
2023-04-20T05:44:39.690Z,21.92
2023-04-20T05:45:39.805Z,21.90
2023-04-20T05:46:39.852Z,21.87
2023-04-20T05:47:39.984Z,21.87
2023-04-20T05:48:40.053Z,21.89
2023-04-20T05:49:40.157Z,21.88
2023-04-20T05:50:40.221Z,21.87
2023-04-20T05:51:40.308Z,21.84
2023-04-20T05:52:40.352Z,21.83
2023-04-20T05:53:40.373Z,21.84
2023-04-20T05:54:40.413Z,21.82
2023-04-20T05:55:40.465Z,21.81
2023-04-20T05:56:40.487Z,21.78
2023-04-20T05:57:40.524Z,21.77
2023-04-20T05:58:40.562Z,21.76
2023-04-20T05:59:40.611Z,21.75
2023-04-20T06:00:40.652Z,21.72
2023-04-20T06:01:40.693Z,21.72
2023-04-20T06:02:40.904Z,21.71
2023-04-20T06:03:41.049Z,21.72
2023-04-20T06:04:41.007Z,21.71
2023-04-20T06:05:41.046Z,21.68
2023-04-20T06:06:40.903Z,21.67
2023-04-20T06:07:40.983Z,21.68
2023-04-20T06:08:40.986Z,21.69
2023-04-20T06:09:41.039Z,21.67
2023-04-20T06:10:41.111Z,21.66
2023-04-20T06:11:55.818Z,21.63
2023-04-20T06:12:41.181Z,21.59
2023-04-20T06:13:41.190Z,21.61
2023-04-20T06:14:41.215Z,21.63
2023-04-20T06:15:41.374Z,21.64
2023-04-20T06:16:41.312Z,21.63
2023-04-20T06:17:41.651Z,21.64
2023-04-20T06:18:41.372Z,21.63
2023-04-20T06:19:41.412Z,21.63
2023-04-20T06:20:41.477Z,21.62
2023-04-20T06:21:41.492Z,21.60
2023-04-20T06:22:41.531Z,21.60
2023-04-20T06:23:41.592Z,21.59
2023-04-20T06:24:41.605Z,21.58
2023-04-20T06:25:41.667Z,21.55
2023-04-20T06:26:41.689Z,21.57
2023-04-20T06:27:41.738Z,21.59
2023-04-20T06:28:41.786Z,21.59
2023-04-20T06:29:41.861Z,21.59
2023-04-20T06:30:41.875Z,21.58
2023-04-20T06:31:41.947Z,21.58
2023-04-20T06:32:42.031Z,21.58
2023-04-20T06:33:41.962Z,21.59
2023-04-20T06:34:41.999Z,21.59
2023-04-20T06:35:42.018Z,21.58
2023-04-20T06:36:42.059Z,21.57
2023-04-20T06:37:42.113Z,21.58
2023-04-20T06:38:42.144Z,21.58
2023-04-20T06:39:42.193Z,21.60
2023-04-20T06:40:42.210Z,21.59
2023-04-20T06:41:42.270Z,21.59
2023-04-20T06:42:42.312Z,21.57
2023-04-20T06:43:42.408Z,21.56
2023-04-20T06:44:42.491Z,21.56
2023-04-20T06:45:42.586Z,21.54
2023-04-20T06:46:42.663Z,21.52
2023-04-20T06:47:42.684Z,21.51
2023-04-20T06:48:42.724Z,21.52
2023-04-20T06:49:42.761Z,21.51
2023-04-20T06:50:42.785Z,21.50
2023-04-20T06:51:42.842Z,21.49
2023-04-20T06:52:42.866Z,21.49
2023-04-20T06:53:42.962Z,21.48
2023-04-20T06:54:42.956Z,21.48
2023-04-20T06:55:43.047Z,21.51
2023-04-20T06:56:43.109Z,21.51
2023-04-20T06:57:43.223Z,21.51
2023-04-20T06:58:43.334Z,21.50
2023-04-20T06:59:43.454Z,21.50
2023-04-20T07:00:43.547Z,21.48
2023-04-20T07:01:43.667Z,21.46
2023-04-20T07:02:43.779Z,21.47
2023-04-20T07:03:43.948Z,21.47
2023-04-20T07:04:43.774Z,21.48
2023-04-20T07:05:43.780Z,21.50
2023-04-20T07:06:43.811Z,21.48
2023-04-20T07:07:43.878Z,21.48
2023-04-20T07:08:43.893Z,21.49
2023-04-20T07:09:44.172Z,21.49
2023-04-20T07:10:43.986Z,21.47
2023-04-20T07:11:44.019Z,21.47
2023-04-20T07:12:44.327Z,21.48
2023-04-20T07:13:44.132Z,21.48
2023-04-20T07:14:44.168Z,21.49
2023-04-20T07:15:44.256Z,21.49
2023-04-20T07:16:44.407Z,21.50
2023-04-20T07:17:44.491Z,21.49
2023-04-20T07:18:44.602Z,21.49
2023-04-20T07:19:44.692Z,21.49
2023-04-20T07:20:44.795Z,21.49
2023-04-20T07:21:44.883Z,21.49
2023-04-20T07:22:44.953Z,21.50
2023-04-20T07:23:45.380Z,21.47
2023-04-20T07:24:45.165Z,21.48
2023-04-20T07:25:45.282Z,21.46
2023-04-20T07:26:45.381Z,21.45
2023-04-20T07:27:45.573Z,21.44
2023-04-20T07:28:45.605Z,21.43
2023-04-20T07:29:45.666Z,21.44
2023-04-20T07:30:45.719Z,21.44
2023-04-20T07:31:45.808Z,21.44
2023-04-20T07:32:45.878Z,21.45
2023-04-20T07:33:45.896Z,21.45
2023-04-20T07:34:45.906Z,21.44
2023-04-20T07:35:45.951Z,21.43
2023-04-20T07:36:45.997Z,21.44
2023-04-20T07:37:46.086Z,21.45
2023-04-20T07:38:46.101Z,21.45
2023-04-20T07:39:46.089Z,21.47
2023-04-20T07:40:46.125Z,21.46
2023-04-20T07:41:46.177Z,21.47
2023-04-20T07:42:46.199Z,21.47
2023-04-20T07:43:46.246Z,21.47
2023-04-20T07:44:46.329Z,21.46
2023-04-20T07:45:46.416Z,21.47
2023-04-20T07:46:46.476Z,21.49
2023-04-20T07:47:46.627Z,21.47
2023-04-20T07:48:46.667Z,21.46
2023-04-20T07:49:46.763Z,21.45
2023-04-20T07:50:46.837Z,21.45
2023-04-20T07:51:46.912Z,21.44
2023-04-20T07:52:46.977Z,21.44
2023-04-20T07:53:47.072Z,21.44
2023-04-20T07:54:47.196Z,21.44
2023-04-20T07:55:48.578Z,21.45
2023-04-20T07:56:47.473Z,21.46
2023-04-20T07:57:47.400Z,21.45
2023-04-20T07:58:47.433Z,21.45
2023-04-20T07:59:47.445Z,21.46
2023-04-20T08:00:47.489Z,21.44
2023-04-20T08:01:47.524Z,21.44
2023-04-20T08:02:47.660Z,21.44
2023-04-20T08:03:47.743Z,21.46
2023-04-20T08:04:47.784Z,21.48
2023-04-20T08:05:47.691Z,21.48
2023-04-20T08:06:47.697Z,21.49
2023-04-20T08:07:48.496Z,21.50
2023-04-20T08:08:47.815Z,21.48
2023-04-20T08:09:47.855Z,21.49
2023-04-20T08:10:47.958Z,21.50
2023-04-20T08:11:48.075Z,21.50
2023-04-20T08:12:50.454Z,21.50
2023-04-20T08:13:48.155Z,21.50
2023-04-20T08:14:48.236Z,21.52
2023-04-20T08:15:48.282Z,21.53
2023-04-20T08:16:48.296Z,21.53
2023-04-20T08:17:48.364Z,21.51
2023-04-20T08:18:48.378Z,21.50
2023-04-20T08:19:48.361Z,21.49
2023-04-20T08:20:48.388Z,21.51
2023-04-20T08:21:48.467Z,21.52
2023-04-20T08:22:48.471Z,21.52
2023-04-20T08:23:48.489Z,21.53
2023-04-20T08:24:48.544Z,21.53
2023-04-20T08:25:48.563Z,21.52
2023-04-20T08:26:48.600Z,21.51
2023-04-20T08:27:48.623Z,21.49
2023-04-20T08:28:48.733Z,21.48
2023-04-20T08:29:48.694Z,21.47
2023-04-20T08:30:48.767Z,21.45
2023-04-20T08:31:50.008Z,21.44
2023-04-20T08:32:48.883Z,21.45
2023-04-20T08:33:48.846Z,21.48
2023-04-20T08:34:48.868Z,21.50
2023-04-20T08:35:48.881Z,21.49
2023-04-20T08:36:48.950Z,21.50
2023-04-20T08:37:48.944Z,21.52
2023-04-20T08:38:49.049Z,21.53
2023-04-20T08:39:49.047Z,21.54
2023-04-20T08:40:49.065Z,21.58
2023-04-20T08:41:49.084Z,21.58
2023-04-20T08:42:49.113Z,21.57
2023-04-20T08:43:49.163Z,21.58
2023-04-20T08:44:49.249Z,21.57
2023-04-20T08:45:49.268Z,21.57
2023-04-20T08:46:49.312Z,21.57
2023-04-20T08:47:49.338Z,21.58
2023-04-20T08:48:49.381Z,21.60
2023-04-20T08:49:49.421Z,21.60
2023-04-20T08:50:49.441Z,21.63
2023-04-20T08:51:49.455Z,21.66
2023-04-20T08:52:49.490Z,21.69
2023-04-20T08:53:49.520Z,21.74
2023-04-20T08:54:56.578Z,21.77
2023-04-20T08:55:50.608Z,21.78
2023-04-20T08:56:49.632Z,21.82
2023-04-20T08:57:49.650Z,21.85
2023-04-20T08:58:49.711Z,21.87
2023-04-20T08:59:49.713Z,21.91
2023-04-20T09:00:49.798Z,21.92
2023-04-20T09:01:49.803Z,21.95
2023-04-20T09:02:49.921Z,21.96
2023-04-20T09:03:50.008Z,21.99
2023-04-20T09:04:50.008Z,22.00
2023-04-20T09:05:49.922Z,22.02
2023-04-20T09:06:49.969Z,22.04
2023-04-20T09:07:49.994Z,22.06
2023-04-20T09:08:50.003Z,22.09
2023-04-20T09:09:50.040Z,22.11
2023-04-20T09:10:50.085Z,22.13
2023-04-20T09:11:50.089Z,22.14
2023-04-20T09:12:50.126Z,22.16
2023-04-20T09:13:50.139Z,22.17
2023-04-20T09:14:50.167Z,22.18
2023-04-20T09:15:50.245Z,22.19
2023-04-20T09:16:50.430Z,22.20
2023-04-20T09:17:50.330Z,22.22
2023-04-20T09:18:50.314Z,22.24
2023-04-20T09:19:50.379Z,22.25
2023-04-20T09:20:50.391Z,22.26
2023-04-20T09:21:50.463Z,22.29
2023-04-20T09:22:50.483Z,22.31
2023-04-20T09:23:51.323Z,22.32
2023-04-20T09:24:50.679Z,22.32
2023-04-20T09:25:50.564Z,22.34
2023-04-20T09:26:50.561Z,22.37
2023-04-20T09:27:50.632Z,22.38
2023-04-20T09:28:50.669Z,22.41
2023-04-20T09:29:50.640Z,22.41
2023-04-20T09:30:50.689Z,22.42
2023-04-20T09:31:50.747Z,22.44
2023-04-20T09:32:50.813Z,22.45
2023-04-20T09:33:50.739Z,22.46
2023-04-20T09:34:50.786Z,22.47
2023-04-20T09:35:50.799Z,22.49
2023-04-20T09:36:50.872Z,22.51
2023-04-20T09:37:50.852Z,22.52
2023-04-20T09:38:50.894Z,22.53
2023-04-20T09:39:51.042Z,22.55
2023-04-20T09:40:50.913Z,22.58
2023-04-20T09:41:50.949Z,22.59
2023-04-20T09:42:50.997Z,22.60
2023-04-20T09:43:51.191Z,22.62
2023-04-20T09:44:51.015Z,22.64
2023-04-20T09:45:51.080Z,22.66
2023-04-20T09:46:51.064Z,22.67
2023-04-20T09:47:51.255Z,22.70
2023-04-20T09:48:51.226Z,22.73
2023-04-20T09:49:51.314Z,22.73
2023-04-20T09:50:51.929Z,22.74
2023-04-20T09:51:51.486Z,22.74
2023-04-20T09:52:51.576Z,22.75
2023-04-20T09:53:52.829Z,22.76
2023-04-20T09:54:51.753Z,22.77
2023-04-20T09:55:51.978Z,22.78
2023-04-20T09:56:51.915Z,22.80
2023-04-20T09:57:51.921Z,22.81
2023-04-20T09:58:51.960Z,22.82
2023-04-20T09:59:53.301Z,22.85
2023-04-20T10:00:52.049Z,22.86
2023-04-20T10:01:52.039Z,22.87
2023-04-20T10:02:52.219Z,22.90
2023-04-20T10:03:52.196Z,22.92
2023-04-20T10:04:52.108Z,22.94
2023-04-20T10:05:53.590Z,22.98
2023-04-20T10:06:52.138Z,22.98
2023-04-20T10:07:52.116Z,23.00
2023-04-20T10:08:52.152Z,23.03
2023-04-20T10:09:52.168Z,23.03
2023-04-20T10:10:52.176Z,23.05
2023-04-20T10:11:53.863Z,23.07
2023-04-20T10:12:52.270Z,23.09
2023-04-20T10:13:52.294Z,23.11
2023-04-20T10:14:52.265Z,23.11
2023-04-20T10:15:52.280Z,23.13
2023-04-20T10:16:52.416Z,23.14
2023-04-20T10:17:52.353Z,23.16
2023-04-20T10:18:52.409Z,23.18
2023-04-20T10:19:52.366Z,23.19
2023-04-20T10:20:52.369Z,23.20
2023-04-20T10:21:52.408Z,23.20
2023-04-20T10:22:52.437Z,23.22
2023-04-20T10:23:52.436Z,23.25
2023-04-20T10:24:52.481Z,23.27
2023-04-20T10:25:52.471Z,23.29
2023-04-20T10:26:52.517Z,23.31
2023-04-20T10:27:52.514Z,23.33
2023-04-20T10:28:52.533Z,23.34
2023-04-20T10:29:52.561Z,23.34
2023-04-20T10:30:52.693Z,23.35
2023-04-20T10:31:52.611Z,23.37
2023-04-20T10:32:52.650Z,23.37
2023-04-20T10:33:52.661Z,23.37
2023-04-20T10:34:52.700Z,23.37
2023-04-20T10:35:52.682Z,23.40
2023-04-20T10:36:52.707Z,23.42
2023-04-20T10:37:52.738Z,23.44
2023-04-20T10:38:52.759Z,23.44
2023-04-20T10:39:52.797Z,23.45
2023-04-20T10:40:52.786Z,23.45
2023-04-20T10:41:52.846Z,23.46
2023-04-20T10:42:52.849Z,23.47
2023-04-20T10:43:52.829Z,23.47
2023-04-20T10:44:52.877Z,23.48
2023-04-20T10:45:52.927Z,23.50
2023-04-20T10:46:52.959Z,23.50
2023-04-20T10:47:53.027Z,23.51
2023-04-20T10:48:52.886Z,23.51
2023-04-20T10:49:52.963Z,23.52
2023-04-20T10:50:53.006Z,23.52
2023-04-20T10:51:54.470Z,23.53
2023-04-20T10:52:53.084Z,23.52
2023-04-20T10:53:53.060Z,23.52
2023-04-20T10:54:53.098Z,23.52
2023-04-20T10:55:53.106Z,23.54
2023-04-20T10:56:53.166Z,23.54
2023-04-20T10:57:53.166Z,23.55
2023-04-20T10:58:53.158Z,23.56
2023-04-20T10:59:53.202Z,23.56
2023-04-20T11:00:53.201Z,23.57
2023-04-20T11:01:53.263Z,23.57
2023-04-20T11:02:53.298Z,23.58
2023-04-20T11:03:53.386Z,23.60
2023-04-20T11:04:53.360Z,23.62
2023-04-20T11:05:53.303Z,23.63
2023-04-20T11:06:53.326Z,23.65
2023-04-20T11:07:53.323Z,23.67
2023-04-20T11:08:53.358Z,23.67
2023-04-20T11:09:53.371Z,23.67
2023-04-20T11:10:53.369Z,23.67
2023-04-20T11:11:53.411Z,23.68
2023-04-20T11:12:53.417Z,23.68
2023-04-20T11:13:53.445Z,23.68
2023-04-20T11:14:53.434Z,23.67
2023-04-20T11:15:53.470Z,23.68
2023-04-20T11:16:53.627Z,23.70
2023-04-20T11:17:53.534Z,23.71
2023-04-20T11:18:53.503Z,23.71
2023-04-20T11:19:53.508Z,23.72
2023-04-20T11:20:53.539Z,23.72
2023-04-20T11:21:53.557Z,23.72
2023-04-20T11:22:54.842Z,23.73
2023-04-20T11:23:53.570Z,23.74
2023-04-20T11:24:53.597Z,23.76
2023-04-20T11:25:53.630Z,23.75
2023-04-20T11:26:53.660Z,23.76
2023-04-20T11:27:53.662Z,23.76
2023-04-20T11:28:55.183Z,23.76
2023-04-20T11:29:53.678Z,23.77
2023-04-20T11:30:53.710Z,23.77
2023-04-20T11:31:53.802Z,23.78
2023-04-20T11:32:53.838Z,23.78
2023-04-20T11:33:53.835Z,23.78
2023-04-20T11:35:03.375Z,23.80
2023-04-20T11:35:54.844Z,23.82
2023-04-20T11:36:53.844Z,23.83
2023-04-20T11:37:53.853Z,23.84
2023-04-20T11:38:53.893Z,23.85
2023-04-20T11:39:54.038Z,23.87
2023-04-20T11:40:53.910Z,23.87
2023-04-20T11:41:53.932Z,23.87
2023-04-20T11:42:53.948Z,23.87
2023-04-20T11:43:53.956Z,23.87
2023-04-20T11:44:53.972Z,23.86
2023-04-20T11:45:54.003Z,23.87
2023-04-20T11:46:53.979Z,23.88
2023-04-20T11:47:54.045Z,23.88
2023-04-20T11:48:54.024Z,23.89
2023-04-20T11:49:54.070Z,23.90
2023-04-20T11:50:54.060Z,23.92
2023-04-20T11:51:54.077Z,23.93
2023-04-20T11:52:54.081Z,23.94
2023-04-20T11:53:54.085Z,23.95
2023-04-20T11:54:54.092Z,23.97
2023-04-20T11:55:54.100Z,23.97
2023-04-20T11:56:54.131Z,23.99
2023-04-20T11:57:54.121Z,24.00
2023-04-20T11:58:54.141Z,24.00
2023-04-20T11:59:54.168Z,24.00
2023-04-20T12:00:54.142Z,23.99
2023-04-20T12:01:54.189Z,23.99
2023-04-20T12:02:54.246Z,24.00
2023-04-20T12:03:54.343Z,24.00
2023-04-20T12:04:54.282Z,24.00
2023-04-20T12:05:54.226Z,24.01
2023-04-20T12:06:54.188Z,24.02
2023-04-20T12:07:54.216Z,24.03
2023-04-20T12:08:54.229Z,24.04
2023-04-20T12:09:54.229Z,24.04
2023-04-20T12:10:55.063Z,24.05
2023-04-20T12:11:54.341Z,24.05
2023-04-20T12:12:54.295Z,24.07
2023-04-20T12:13:54.331Z,24.07
2023-04-20T12:14:54.308Z,24.08
2023-04-20T12:15:54.373Z,24.09
2023-04-20T12:16:55.500Z,24.09
2023-04-20T12:17:54.478Z,24.09
2023-04-20T12:18:54.461Z,24.10
2023-04-20T12:19:54.555Z,24.10
2023-04-20T12:20:54.607Z,24.10
2023-04-20T12:21:54.617Z,24.09
2023-04-20T12:22:55.626Z,24.10
2023-04-20T12:23:54.729Z,24.10
2023-04-20T12:24:54.811Z,24.11
2023-04-20T12:25:54.855Z,24.12
2023-04-20T12:26:54.967Z,24.13
2023-04-20T12:27:55.018Z,24.15
2023-04-20T12:28:55.136Z,24.14
2023-04-20T12:29:55.182Z,24.15
2023-04-20T12:30:55.292Z,24.16
2023-04-20T12:31:55.357Z,24.15
2023-04-20T12:32:55.311Z,24.15
2023-04-20T12:33:55.312Z,24.15
2023-04-20T12:34:55.332Z,24.16
2023-04-20T12:35:55.318Z,24.17
2023-04-20T12:36:55.336Z,24.16
2023-04-20T12:37:55.329Z,24.15
2023-04-20T12:38:55.348Z,24.15
2023-04-20T12:39:55.383Z,24.15
2023-04-20T12:40:55.405Z,24.15
2023-04-20T12:41:55.410Z,24.16
2023-04-20T12:42:55.408Z,24.16
2023-04-20T12:43:55.442Z,24.16
2023-04-20T12:44:55.431Z,24.17
2023-04-20T12:45:55.473Z,24.17
2023-04-20T12:46:55.479Z,24.16
2023-04-20T12:47:57.275Z,24.17
2023-04-20T12:48:55.488Z,24.17
2023-04-20T12:49:55.533Z,24.17
2023-04-20T12:50:55.488Z,24.18
2023-04-20T12:51:55.516Z,24.18
2023-04-20T12:52:55.525Z,24.19